sensor_id;sensor_type;location;lat;lon;timestamp;temperature;humidity
61145;DHT22;47026;51.208;3.288;2022-09-09T00:04:32;15.70;99.90
61145;DHT22;47026;51.208;3.288;2022-09-09T00:07:24;15.60;99.90
61145;DHT22;47026;51.208;3.288;2022-09-09T00:10:21;15.50;99.90
61145;DHT22;47026;51.208;3.288;2022-09-09T00:16:25;15.30;99.90
61145;DHT22;47026;51.208;3.288;2022-09-09T00:21:36;15.40;99.90
61145;DHT22;47026;51.208;3.288;2022-09-09T00:27:44;15.30;99.90
61145;DHT22;47026;51.208;3.288;2022-09-09T00:29:59;15.20;99.90
61145;DHT22;47026;51.208;3.288;2022-09-09T00:32:29;15.20;99.90
61145;DHT22;47026;51.208;3.288;2022-09-09T00:34:59;15.20;99.90
61145;DHT22;47026;51.208;3.288;2022-09-09T00:37:26;15.30;99.90
61145;DHT22;47026;51.208;3.288;2022-09-09T00:39:57;15.20;99.90
61145;DHT22;47026;51.208;3.288;2022-09-09T00:42:30;15.30;99.90
61145;DHT22;47026;51.208;3.288;2022-09-09T00:45:44;15.30;99.90
61145;DHT22;47026;51.208;3.288;2022-09-09T00:48:06;15.30;99.90
61145;DHT22;47026;51.208;3.288;2022-09-09T00:50:51;15.20;99.90
61145;DHT22;47026;51.208;3.288;2022-09-09T00:56:14;15.20;99.90
61145;DHT22;47026;51.208;3.288;2022-09-09T00:58:52;15.20;99.90
61145;DHT22;47026;51.208;3.288;2022-09-09T01:01:21;15.30;99.90
61145;DHT22;47026;51.208;3.288;2022-09-09T01:03:53;15.20;99.90
61145;DHT22;47026;51.208;3.288;2022-09-09T01:06:36;15.30;99.90
61145;DHT22;47026;51.208;3.288;2022-09-09T01:17:29;15.30;99.90
61145;DHT22;47026;51.208;3.288;2022-09-09T01:28:14;15.20;99.90
61145;DHT22;47026;51.208;3.288;2022-09-09T01:30:41;15.40;99.90
61145;DHT22;47026;51.208;3.288;2022-09-09T01:33:12;15.30;99.90
61145;DHT22;47026;51.208;3.288;2022-09-09T01:36:02;15.40;99.90
61145;DHT22;47026;51.208;3.288;2022-09-09T01:38:31;15.30;99.90
61145;DHT22;47026;51.208;3.288;2022-09-09T01:40:57;15.30;99.90
61145;DHT22;47026;51.208;3.288;2022-09-09T01:43:24;15.20;99.90
61145;DHT22;47026;51.208;3.288;2022-09-09T01:45:53;15.10;99.90
61145;DHT22;47026;51.208;3.288;2022-09-09T01:48:21;15.10;99.90
61145;DHT22;47026;51.208;3.288;2022-09-09T01:50:47;14.90;99.90
61145;DHT22;47026;51.208;3.288;2022-09-09T01:53:13;14.90;99.90
61145;DHT22;47026;51.208;3.288;2022-09-09T01:55:44;14.80;99.90
61145;DHT22;47026;51.208;3.288;2022-09-09T01:58:15;14.80;99.90
61145;DHT22;47026;51.208;3.288;2022-09-09T02:00:50;14.80;99.90
61145;DHT22;47026;51.208;3.288;2022-09-09T02:03:27;14.80;99.90
61145;DHT22;47026;51.208;3.288;2022-09-09T02:08:45;15.00;99.90
61145;DHT22;47026;51.208;3.288;2022-09-09T02:11:17;15.00;99.90
61145;DHT22;47026;51.208;3.288;2022-09-09T02:13:46;15.00;99.90
61145;DHT22;47026;51.208;3.288;2022-09-09T02:16:22;15.00;99.90
61145;DHT22;47026;51.208;3.288;2022-09-09T02:18:54;15.10;99.90
61145;DHT22;47026;51.208;3.288;2022-09-09T02:21:22;15.10;99.90
61145;DHT22;47026;51.208;3.288;2022-09-09T02:23:49;15.10;99.90
61145;DHT22;47026;51.208;3.288;2022-09-09T02:26:19;15.20;99.90
61145;DHT22;47026;51.208;3.288;2022-09-09T02:28:49;15.20;99.90
61145;DHT22;47026;51.208;3.288;2022-09-09T02:31:18;15.20;99.90
61145;DHT22;47026;51.208;3.288;2022-09-09T02:33:50;15.30;99.90
61145;DHT22;47026;51.208;3.288;2022-09-09T02:36:18;15.30;99.90
61145;DHT22;47026;51.208;3.288;2022-09-09T02:38:47;15.40;99.90
61145;DHT22;47026;51.208;3.288;2022-09-09T02:41:26;15.30;99.90
61145;DHT22;47026;51.208;3.288;2022-09-09T02:43:53;15.30;99.90
61145;DHT22;47026;51.208;3.288;2022-09-09T02:48:55;15.30;99.90
61145;DHT22;47026;51.208;3.288;2022-09-09T02:51:40;15.30;99.90
61145;DHT22;47026;51.208;3.288;2022-09-09T02:54:20;15.30;99.90
61145;DHT22;47026;51.208;3.288;2022-09-09T02:56:52;15.30;99.90
61145;DHT22;47026;51.208;3.288;2022-09-09T02:59:22;15.40;99.90
61145;DHT22;47026;51.208;3.288;2022-09-09T03:01:50;15.40;99.90
61145;DHT22;47026;51.208;3.288;2022-09-09T03:04:15;15.30;99.90
61145;DHT22;47026;51.208;3.288;2022-09-09T03:06:41;15.30;99.90
61145;DHT22;47026;51.208;3.288;2022-09-09T03:09:07;15.30;99.90
61145;DHT22;47026;51.208;3.288;2022-09-09T03:11:35;15.30;99.90
61145;DHT22;47026;51.208;3.288;2022-09-09T03:14:01;15.30;99.90
61145;DHT22;47026;51.208;3.288;2022-09-09T03:16:27;15.30;99.90
61145;DHT22;47026;51.208;3.288;2022-09-09T03:18:52;15.30;99.90
61145;DHT22;47026;51.208;3.288;2022-09-09T03:21:18;15.30;99.90
61145;DHT22;47026;51.208;3.288;2022-09-09T03:23:43;15.40;99.90
61145;DHT22;47026;51.208;3.288;2022-09-09T03:26:10;15.40;99.90
61145;DHT22;47026;51.208;3.288;2022-09-09T03:28:36;15.30;99.90
61145;DHT22;47026;51.208;3.288;2022-09-09T03:31:02;15.40;99.90
61145;DHT22;47026;51.208;3.288;2022-09-09T03:33:28;15.40;99.90
61145;DHT22;47026;51.208;3.288;2022-09-09T03:35:55;15.30;99.90
61145;DHT22;47026;51.208;3.288;2022-09-09T03:38:23;15.30;99.90
61145;DHT22;47026;51.208;3.288;2022-09-09T03:40:53;15.30;99.90
61145;DHT22;47026;51.208;3.288;2022-09-09T03:43:21;15.30;99.90
61145;DHT22;47026;51.208;3.288;2022-09-09T03:45:47;15.30;99.90
61145;DHT22;47026;51.208;3.288;2022-09-09T03:48:14;15.40;99.90
61145;DHT22;47026;51.208;3.288;2022-09-09T03:50:45;15.40;99.90
61145;DHT22;47026;51.208;3.288;2022-09-09T03:53:10;15.40;99.90
61145;DHT22;47026;51.208;3.288;2022-09-09T03:55:36;15.30;99.90
61145;DHT22;47026;51.208;3.288;2022-09-09T03:58:01;15.30;99.90
61145;DHT22;47026;51.208;3.288;2022-09-09T04:00:27;15.30;99.90
61145;DHT22;47026;51.208;3.288;2022-09-09T04:02:54;15.20;99.90
61145;DHT22;47026;51.208;3.288;2022-09-09T04:05:21;15.20;99.90
61145;DHT22;47026;51.208;3.288;2022-09-09T04:07:46;15.20;99.90
61145;DHT22;47026;51.208;3.288;2022-09-09T04:10:12;15.20;99.90
61145;DHT22;47026;51.208;3.288;2022-09-09T04:12:39;15.10;99.90
61145;DHT22;47026;51.208;3.288;2022-09-09T04:15:04;15.10;99.90
61145;DHT22;47026;51.208;3.288;2022-09-09T04:17:30;15.10;99.90
61145;DHT22;47026;51.208;3.288;2022-09-09T04:19:56;15.10;99.90
61145;DHT22;47026;51.208;3.288;2022-09-09T04:22:22;15.10;99.90
61145;DHT22;47026;51.208;3.288;2022-09-09T04:24:47;15.00;99.90
61145;DHT22;47026;51.208;3.288;2022-09-09T04:27:13;15.00;99.90
61145;DHT22;47026;51.208;3.288;2022-09-09T04:29:39;15.00;99.90
61145;DHT22;47026;51.208;3.288;2022-09-09T04:32:04;15.00;99.90
61145;DHT22;47026;51.208;3.288;2022-09-09T04:34:30;15.00;99.90
61145;DHT22;47026;51.208;3.288;2022-09-09T04:36:56;15.00;99.90
61145;DHT22;47026;51.208;3.288;2022-09-09T04:39:22;15.00;99.90
61145;DHT22;47026;51.208;3.288;2022-09-09T04:41:47;14.90;99.90
61145;DHT22;47026;51.208;3.288;2022-09-09T04:44:13;15.00;99.90
61145;DHT22;47026;51.208;3.288;2022-09-09T04:46:39;14.90;99.90
61145;DHT22;47026;51.208;3.288;2022-09-09T04:49:06;14.90;99.90
61145;DHT22;47026;51.208;3.288;2022-09-09T04:51:32;14.90;99.90
61145;DHT22;47026;51.208;3.288;2022-09-09T04:53:58;14.90;99.90
61145;DHT22;47026;51.208;3.288;2022-09-09T04:56:24;14.90;99.90
61145;DHT22;47026;51.208;3.288;2022-09-09T04:58:52;15.00;99.90
61145;DHT22;47026;51.208;3.288;2022-09-09T05:01:18;14.90;99.90
61145;DHT22;47026;51.208;3.288;2022-09-09T05:03:45;14.90;99.90
61145;DHT22;47026;51.208;3.288;2022-09-09T05:06:15;15.00;99.90
61145;DHT22;47026;51.208;3.288;2022-09-09T05:08:43;14.90;99.90
61145;DHT22;47026;51.208;3.288;2022-09-09T05:11:27;14.90;99.90
61145;DHT22;47026;51.208;3.288;2022-09-09T05:13:53;14.90;99.90
61145;DHT22;47026;51.208;3.288;2022-09-09T05:16:20;14.90;99.90
61145;DHT22;47026;51.208;3.288;2022-09-09T05:18:46;14.90;99.90
61145;DHT22;47026;51.208;3.288;2022-09-09T05:21:14;14.90;99.90
61145;DHT22;47026;51.208;3.288;2022-09-09T05:23:40;14.90;99.90
61145;DHT22;47026;51.208;3.288;2022-09-09T05:26:08;14.90;99.90
61145;DHT22;47026;51.208;3.288;2022-09-09T05:28:35;14.90;99.90
61145;DHT22;47026;51.208;3.288;2022-09-09T05:31:08;14.90;99.90
61145;DHT22;47026;51.208;3.288;2022-09-09T05:33:35;15.00;99.90
61145;DHT22;47026;51.208;3.288;2022-09-09T05:36:02;14.90;99.90
61145;DHT22;47026;51.208;3.288;2022-09-09T05:38:30;14.90;99.90
61145;DHT22;47026;51.208;3.288;2022-09-09T05:40:56;15.00;99.90
61145;DHT22;47026;51.208;3.288;2022-09-09T05:43:22;15.00;99.90
61145;DHT22;47026;51.208;3.288;2022-09-09T05:45:48;15.10;99.90
61145;DHT22;47026;51.208;3.288;2022-09-09T05:48:17;15.00;99.90
61145;DHT22;47026;51.208;3.288;2022-09-09T05:50:43;15.10;99.90
61145;DHT22;47026;51.208;3.288;2022-09-09T05:53:10;15.10;99.90
61145;DHT22;47026;51.208;3.288;2022-09-09T05:55:36;15.00;99.90
61145;DHT22;47026;51.208;3.288;2022-09-09T05:58:02;15.10;99.90
61145;DHT22;47026;51.208;3.288;2022-09-09T06:00:28;15.10;99.90
61145;DHT22;47026;51.208;3.288;2022-09-09T06:02:57;15.20;99.90
61145;DHT22;47026;51.208;3.288;2022-09-09T06:05:22;15.10;99.90
61145;DHT22;47026;51.208;3.288;2022-09-09T06:07:52;15.10;99.90
61145;DHT22;47026;51.208;3.288;2022-09-09T06:10:18;15.10;99.90
61145;DHT22;47026;51.208;3.288;2022-09-09T06:12:44;15.10;99.90
61145;DHT22;47026;51.208;3.288;2022-09-09T06:15:10;15.10;99.90
61145;DHT22;47026;51.208;3.288;2022-09-09T06:17:35;15.10;99.90
61145;DHT22;47026;51.208;3.288;2022-09-09T06:20:02;15.20;99.90
61145;DHT22;47026;51.208;3.288;2022-09-09T06:22:28;15.30;99.90
61145;DHT22;47026;51.208;3.288;2022-09-09T06:24:53;15.30;99.90
61145;DHT22;47026;51.208;3.288;2022-09-09T06:27:19;15.40;99.90
61145;DHT22;47026;51.208;3.288;2022-09-09T06:29:44;15.40;99.90
61145;DHT22;47026;51.208;3.288;2022-09-09T06:32:10;15.50;99.90
61145;DHT22;47026;51.208;3.288;2022-09-09T06:34:35;15.50;99.90
61145;DHT22;47026;51.208;3.288;2022-09-09T06:37:02;15.60;99.90
61145;DHT22;47026;51.208;3.288;2022-09-09T06:39:27;15.70;99.90
61145;DHT22;47026;51.208;3.288;2022-09-09T06:41:53;15.80;99.90
61145;DHT22;47026;51.208;3.288;2022-09-09T06:44:19;15.70;99.90
61145;DHT22;47026;51.208;3.288;2022-09-09T06:46:44;15.60;99.90
61145;DHT22;47026;51.208;3.288;2022-09-09T06:49:13;15.50;99.90
61145;DHT22;47026;51.208;3.288;2022-09-09T06:51:38;15.40;99.90
61145;DHT22;47026;51.208;3.288;2022-09-09T06:54:08;15.40;99.90
61145;DHT22;47026;51.208;3.288;2022-09-09T06:56:38;15.40;99.90
61145;DHT22;47026;51.208;3.288;2022-09-09T06:59:07;15.40;99.90
61145;DHT22;47026;51.208;3.288;2022-09-09T07:01:36;15.40;99.90
61145;DHT22;47026;51.208;3.288;2022-09-09T07:04:03;15.40;99.90
61145;DHT22;47026;51.208;3.288;2022-09-09T07:06:34;15.40;99.90
61145;DHT22;47026;51.208;3.288;2022-09-09T07:09:02;15.40;99.90
61145;DHT22;47026;51.208;3.288;2022-09-09T07:11:31;15.40;99.90
61145;DHT22;47026;51.208;3.288;2022-09-09T07:13:58;15.40;99.90
61145;DHT22;47026;51.208;3.288;2022-09-09T07:16:24;15.40;99.90
61145;DHT22;47026;51.208;3.288;2022-09-09T07:18:51;15.40;99.90
61145;DHT22;47026;51.208;3.288;2022-09-09T07:21:18;15.30;99.90
61145;DHT22;47026;51.208;3.288;2022-09-09T07:23:45;15.40;99.90
61145;DHT22;47026;51.208;3.288;2022-09-09T07:26:13;15.30;99.90
61145;DHT22;47026;51.208;3.288;2022-09-09T07:28:39;15.40;99.90
61145;DHT22;47026;51.208;3.288;2022-09-09T07:31:06;15.40;99.90
61145;DHT22;47026;51.208;3.288;2022-09-09T07:33:34;15.40;99.90
61145;DHT22;47026;51.208;3.288;2022-09-09T07:36:06;15.40;99.90
61145;DHT22;47026;51.208;3.288;2022-09-09T07:38:41;15.50;99.90
61145;DHT22;47026;51.208;3.288;2022-09-09T07:41:10;15.50;99.90
61145;DHT22;47026;51.208;3.288;2022-09-09T07:43:39;15.60;99.90
61145;DHT22;47026;51.208;3.288;2022-09-09T07:46:06;15.60;99.90
61145;DHT22;47026;51.208;3.288;2022-09-09T07:48:32;15.60;99.90
61145;DHT22;47026;51.208;3.288;2022-09-09T07:51:08;15.60;99.90
61145;DHT22;47026;51.208;3.288;2022-09-09T07:53:35;15.60;99.90
61145;DHT22;47026;51.208;3.288;2022-09-09T07:56:02;15.70;99.90
61145;DHT22;47026;51.208;3.288;2022-09-09T07:58:28;15.60;99.90
61145;DHT22;47026;51.208;3.288;2022-09-09T08:00:54;15.60;99.90
61145;DHT22;47026;51.208;3.288;2022-09-09T08:03:20;15.60;99.90
61145;DHT22;47026;51.208;3.288;2022-09-09T08:05:47;15.70;99.90
61145;DHT22;47026;51.208;3.288;2022-09-09T08:08:13;15.80;99.90
61145;DHT22;47026;51.208;3.288;2022-09-09T08:10:38;15.80;99.90
61145;DHT22;47026;51.208;3.288;2022-09-09T08:13:04;15.90;99.90
61145;DHT22;47026;51.208;3.288;2022-09-09T08:15:30;16.10;99.90
61145;DHT22;47026;51.208;3.288;2022-09-09T08:17:56;16.10;99.90
61145;DHT22;47026;51.208;3.288;2022-09-09T08:20:21;16.10;99.90
61145;DHT22;47026;51.208;3.288;2022-09-09T08:22:48;16.10;99.90
61145;DHT22;47026;51.208;3.288;2022-09-09T08:25:15;16.10;99.90
61145;DHT22;47026;51.208;3.288;2022-09-09T08:27:40;16.20;99.90
61145;DHT22;47026;51.208;3.288;2022-09-09T08:30:06;16.20;99.90
61145;DHT22;47026;51.208;3.288;2022-09-09T08:32:32;16.30;99.90
61145;DHT22;47026;51.208;3.288;2022-09-09T08:34:57;16.30;99.90
61145;DHT22;47026;51.208;3.288;2022-09-09T08:37:23;16.30;99.90
61145;DHT22;47026;51.208;3.288;2022-09-09T08:39:48;16.40;99.90
61145;DHT22;47026;51.208;3.288;2022-09-09T08:42:20;16.60;99.90
61145;DHT22;47026;51.208;3.288;2022-09-09T08:44:54;16.70;99.90
61145;DHT22;47026;51.208;3.288;2022-09-09T08:57:47;17.30;99.90
61145;DHT22;47026;51.208;3.288;2022-09-09T09:00:14;17.40;99.90
61145;DHT22;47026;51.208;3.288;2022-09-09T09:02:42;18.00;99.90
61145;DHT22;47026;51.208;3.288;2022-09-09T09:12:46;18.90;99.90
61145;DHT22;47026;51.208;3.288;2022-09-09T09:15:21;19.10;99.90
61145;DHT22;47026;51.208;3.288;2022-09-09T09:17:47;19.10;99.90
61145;DHT22;47026;51.208;3.288;2022-09-09T09:20:14;18.70;99.90
61145;DHT22;47026;51.208;3.288;2022-09-09T09:25:19;18.20;99.90
61145;DHT22;47026;51.208;3.288;2022-09-09T09:30:19;18.30;99.90
61145;DHT22;47026;51.208;3.288;2022-09-09T09:33:08;18.50;99.90
61145;DHT22;47026;51.208;3.288;2022-09-09T09:35:31;19.00;99.90
61145;DHT22;47026;51.208;3.288;2022-09-09T09:37:56;19.70;99.90
61145;DHT22;47026;51.208;3.288;2022-09-09T09:40:22;20.40;99.90
61145;DHT22;47026;51.208;3.288;2022-09-09T09:42:53;20.50;99.90
61145;DHT22;47026;51.208;3.288;2022-09-09T09:48:08;19.60;99.90
61145;DHT22;47026;51.208;3.288;2022-09-09T09:50:33;19.80;99.90
61145;DHT22;47026;51.208;3.288;2022-09-09T09:53:03;20.30;99.90
61145;DHT22;47026;51.208;3.288;2022-09-09T09:55:30;20.60;99.90
61145;DHT22;47026;51.208;3.288;2022-09-09T09:58:03;20.60;99.90
61145;DHT22;47026;51.208;3.288;2022-09-09T10:00:29;20.20;99.90
61145;DHT22;47026;51.208;3.288;2022-09-09T10:02:54;19.80;99.90
61145;DHT22;47026;51.208;3.288;2022-09-09T10:05:22;19.30;99.90
61145;DHT22;47026;51.208;3.288;2022-09-09T10:13:20;20.10;99.90
61145;DHT22;47026;51.208;3.288;2022-09-09T10:21:31;19.30;99.90
61145;DHT22;47026;51.208;3.288;2022-09-09T10:26:58;18.90;99.90
61145;DHT22;47026;51.208;3.288;2022-09-09T10:34:50;18.40;99.90
61145;DHT22;47026;51.208;3.288;2022-09-09T10:39:47;17.90;99.90
61145;DHT22;47026;51.208;3.288;2022-09-09T10:42:16;17.90;99.90
61145;DHT22;47026;51.208;3.288;2022-09-09T10:49:55;17.50;99.90
61145;DHT22;47026;51.208;3.288;2022-09-09T10:52:26;17.40;99.90
61145;DHT22;47026;51.208;3.288;2022-09-09T10:55:12;17.30;99.90
61145;DHT22;47026;51.208;3.288;2022-09-09T10:57:39;17.30;99.90
61145;DHT22;47026;51.208;3.288;2022-09-09T11:00:10;17.30;99.90
61145;DHT22;47026;51.208;3.288;2022-09-09T11:02:39;17.30;99.90
61145;DHT22;47026;51.208;3.288;2022-09-09T11:05:27;17.30;99.90
61145;DHT22;47026;51.208;3.288;2022-09-09T11:08:04;17.20;99.90
61145;DHT22;47026;51.208;3.288;2022-09-09T11:10:40;17.20;99.90
61145;DHT22;47026;51.208;3.288;2022-09-09T11:13:11;17.20;99.90
61145;DHT22;47026;51.208;3.288;2022-09-09T11:15:50;17.20;99.90
61145;DHT22;47026;51.208;3.288;2022-09-09T11:18:19;17.10;99.90
61145;DHT22;47026;51.208;3.288;2022-09-09T11:20:45;17.20;99.90
61145;DHT22;47026;51.208;3.288;2022-09-09T11:23:13;17.10;99.90
61145;DHT22;47026;51.208;3.288;2022-09-09T11:25:45;17.20;99.90
61145;DHT22;47026;51.208;3.288;2022-09-09T11:28:24;17.30;99.90
61145;DHT22;47026;51.208;3.288;2022-09-09T11:38:29;17.40;99.90
61145;DHT22;47026;51.208;3.288;2022-09-09T11:40:59;17.40;99.90
61145;DHT22;47026;51.208;3.288;2022-09-09T11:45:58;17.50;99.90
61145;DHT22;47026;51.208;3.288;2022-09-09T11:50:59;17.60;99.90
61145;DHT22;47026;51.208;3.288;2022-09-09T11:53:25;17.60;99.90
61145;DHT22;47026;51.208;3.288;2022-09-09T11:56:05;17.60;99.90
61145;DHT22;47026;51.208;3.288;2022-09-09T11:58:33;17.70;99.90
61145;DHT22;47026;51.208;3.288;2022-09-09T12:01:01;17.60;99.90
61145;DHT22;47026;51.208;3.288;2022-09-09T12:03:45;17.60;99.90
61145;DHT22;47026;51.208;3.288;2022-09-09T12:06:19;17.60;99.90
61145;DHT22;47026;51.208;3.288;2022-09-09T12:08:51;17.90;99.90
61145;DHT22;47026;51.208;3.288;2022-09-09T12:11:25;19.10;99.90
61145;DHT22;47026;51.208;3.288;2022-09-09T12:13:55;20.90;99.90
61145;DHT22;47026;51.208;3.288;2022-09-09T12:16:34;21.00;99.90
61145;DHT22;47026;51.208;3.288;2022-09-09T12:19:14;20.80;99.90
61145;DHT22;47026;51.208;3.288;2022-09-09T12:24:36;20.20;99.90
61145;DHT22;47026;51.208;3.288;2022-09-09T12:27:07;22.30;99.90
61145;DHT22;47026;51.208;3.288;2022-09-09T12:29:53;24.90;99.90
61145;DHT22;47026;51.208;3.288;2022-09-09T12:32:22;27.20;99.90
61145;DHT22;47026;51.208;3.288;2022-09-09T12:34:49;28.30;99.90
61145;DHT22;47026;51.208;3.288;2022-09-09T12:37:28;27.80;99.90
61145;DHT22;47026;51.208;3.288;2022-09-09T12:39:58;26.00;99.90
61145;DHT22;47026;51.208;3.288;2022-09-09T12:42:24;25.00;99.90
61145;DHT22;47026;51.208;3.288;2022-09-09T12:44:57;25.50;99.90
61145;DHT22;47026;51.208;3.288;2022-09-09T12:47:31;25.20;99.90
61145;DHT22;47026;51.208;3.288;2022-09-09T12:49:57;24.40;99.90
61145;DHT22;47026;51.208;3.288;2022-09-09T12:52:25;23.30;99.90
61145;DHT22;47026;51.208;3.288;2022-09-09T12:54:51;22.20;99.90
61145;DHT22;47026;51.208;3.288;2022-09-09T12:57:19;21.10;99.90
61145;DHT22;47026;51.208;3.288;2022-09-09T12:59:45;20.50;99.90
61145;DHT22;47026;51.208;3.288;2022-09-09T13:02:24;20.50;99.90
61145;DHT22;47026;51.208;3.288;2022-09-09T13:04:51;20.90;99.90
61145;DHT22;47026;51.208;3.288;2022-09-09T13:07:17;20.90;99.90
61145;DHT22;47026;51.208;3.288;2022-09-09T13:09:43;21.00;99.90
61145;DHT22;47026;51.208;3.288;2022-09-09T13:12:13;21.10;99.90
61145;DHT22;47026;51.208;3.288;2022-09-09T13:14:39;20.90;99.90
61145;DHT22;47026;51.208;3.288;2022-09-09T13:17:17;22.60;99.90
61145;DHT22;47026;51.208;3.288;2022-09-09T13:19:43;23.90;99.90
61145;DHT22;47026;51.208;3.288;2022-09-09T13:22:11;23.30;99.90
61145;DHT22;47026;51.208;3.288;2022-09-09T13:24:38;22.70;99.90
61145;DHT22;47026;51.208;3.288;2022-09-09T13:27:04;22.70;99.90
61145;DHT22;47026;51.208;3.288;2022-09-09T13:29:31;22.20;99.90
61145;DHT22;47026;51.208;3.288;2022-09-09T13:32:04;22.80;99.90
61145;DHT22;47026;51.208;3.288;2022-09-09T13:34:31;23.90;99.90
61145;DHT22;47026;51.208;3.288;2022-09-09T13:36:59;24.00;99.90
61145;DHT22;47026;51.208;3.288;2022-09-09T13:39:27;23.70;99.90
61145;DHT22;47026;51.208;3.288;2022-09-09T13:41:53;23.40;99.90
61145;DHT22;47026;51.208;3.288;2022-09-09T13:44:21;22.50;99.90
61145;DHT22;47026;51.208;3.288;2022-09-09T13:46:59;22.20;99.90
61145;DHT22;47026;51.208;3.288;2022-09-09T13:49:24;21.60;99.90
61145;DHT22;47026;51.208;3.288;2022-09-09T13:52:01;21.20;99.90
61145;DHT22;47026;51.208;3.288;2022-09-09T13:54:27;20.90;99.90
61145;DHT22;47026;51.208;3.288;2022-09-09T13:56:53;20.70;99.90
61145;DHT22;47026;51.208;3.288;2022-09-09T13:59:20;20.50;99.90
61145;DHT22;47026;51.208;3.288;2022-09-09T14:01:46;20.10;99.90
61145;DHT22;47026;51.208;3.288;2022-09-09T14:04:12;19.80;99.90
61145;DHT22;47026;51.208;3.288;2022-09-09T14:06:38;19.70;99.90
61145;DHT22;47026;51.208;3.288;2022-09-09T14:09:05;19.60;99.90
61145;DHT22;47026;51.208;3.288;2022-09-09T14:11:31;19.50;99.90
61145;DHT22;47026;51.208;3.288;2022-09-09T14:13:56;19.40;99.90
61145;DHT22;47026;51.208;3.288;2022-09-09T14:16:22;19.70;99.90
61145;DHT22;47026;51.208;3.288;2022-09-09T14:18:47;19.80;99.90
61145;DHT22;47026;51.208;3.288;2022-09-09T14:21:13;19.90;99.90
61145;DHT22;47026;51.208;3.288;2022-09-09T14:23:39;19.80;99.90
61145;DHT22;47026;51.208;3.288;2022-09-09T14:26:05;19.40;99.90
61145;DHT22;47026;51.208;3.288;2022-09-09T14:28:31;19.40;99.90
61145;DHT22;47026;51.208;3.288;2022-09-09T14:31:00;19.40;99.90
61145;DHT22;47026;51.208;3.288;2022-09-09T14:33:26;19.60;99.90
61145;DHT22;47026;51.208;3.288;2022-09-09T14:35:58;20.10;99.90
61145;DHT22;47026;51.208;3.288;2022-09-09T14:38:23;20.50;99.90
61145;DHT22;47026;51.208;3.288;2022-09-09T14:40:49;20.50;99.90
61145;DHT22;47026;51.208;3.288;2022-09-09T14:43:15;20.60;99.90
61145;DHT22;47026;51.208;3.288;2022-09-09T14:45:40;20.80;99.90
61145;DHT22;47026;51.208;3.288;2022-09-09T14:48:06;21.00;99.90
61145;DHT22;47026;51.208;3.288;2022-09-09T14:50:31;22.00;99.90
61145;DHT22;47026;51.208;3.288;2022-09-09T14:52:57;22.20;99.90
61145;DHT22;47026;51.208;3.288;2022-09-09T14:55:22;21.40;99.90
61145;DHT22;47026;51.208;3.288;2022-09-09T14:57:48;21.00;99.90
61145;DHT22;47026;51.208;3.288;2022-09-09T15:00:13;20.80;99.90
61145;DHT22;47026;51.208;3.288;2022-09-09T15:02:39;20.70;99.90
61145;DHT22;47026;51.208;3.288;2022-09-09T15:05:05;21.00;99.90
61145;DHT22;47026;51.208;3.288;2022-09-09T15:07:30;21.10;99.90
61145;DHT22;47026;51.208;3.288;2022-09-09T15:09:57;21.40;99.90
61145;DHT22;47026;51.208;3.288;2022-09-09T15:12:23;21.80;99.90
61145;DHT22;47026;51.208;3.288;2022-09-09T15:14:49;21.80;99.90
61145;DHT22;47026;51.208;3.288;2022-09-09T15:17:15;21.50;99.90
61145;DHT22;47026;51.208;3.288;2022-09-09T15:19:41;21.30;99.90
61145;DHT22;47026;51.208;3.288;2022-09-09T15:22:07;21.00;99.90
61145;DHT22;47026;51.208;3.288;2022-09-09T15:24:33;20.90;99.90
61145;DHT22;47026;51.208;3.288;2022-09-09T15:27:00;20.80;99.90
61145;DHT22;47026;51.208;3.288;2022-09-09T15:29:25;20.80;99.90
61145;DHT22;47026;51.208;3.288;2022-09-09T15:31:51;20.80;99.90
61145;DHT22;47026;51.208;3.288;2022-09-09T15:34:18;20.70;99.90
61145;DHT22;47026;51.208;3.288;2022-09-09T15:36:44;20.60;99.90
61145;DHT22;47026;51.208;3.288;2022-09-09T15:39:12;20.40;99.90
61145;DHT22;47026;51.208;3.288;2022-09-09T15:41:38;20.30;99.90
61145;DHT22;47026;51.208;3.288;2022-09-09T15:44:04;20.70;99.90
61145;DHT22;47026;51.208;3.288;2022-09-09T15:48:58;20.80;99.90
61145;DHT22;47026;51.208;3.288;2022-09-09T15:51:25;20.70;99.90
61145;DHT22;47026;51.208;3.288;2022-09-09T15:53:53;20.70;99.90
61145;DHT22;47026;51.208;3.288;2022-09-09T15:56:20;20.60;99.90
61145;DHT22;47026;51.208;3.288;2022-09-09T15:58:45;20.60;99.90
61145;DHT22;47026;51.208;3.288;2022-09-09T16:01:11;20.40;99.90
61145;DHT22;47026;51.208;3.288;2022-09-09T16:03:38;20.50;99.90
61145;DHT22;47026;51.208;3.288;2022-09-09T16:06:04;21.40;99.90
61145;DHT22;47026;51.208;3.288;2022-09-09T16:08:33;22.90;99.90
61145;DHT22;47026;51.208;3.288;2022-09-09T16:13:52;24.30;99.90
61145;DHT22;47026;51.208;3.288;2022-09-09T16:16:18;24.10;99.90
61145;DHT22;47026;51.208;3.288;2022-09-09T16:18:47;23.80;99.90
61145;DHT22;47026;51.208;3.288;2022-09-09T16:21:18;23.70;99.90
61145;DHT22;47026;51.208;3.288;2022-09-09T16:23:44;23.40;99.90
61145;DHT22;47026;51.208;3.288;2022-09-09T16:26:13;23.30;99.90
61145;DHT22;47026;51.208;3.288;2022-09-09T16:28:40;22.90;99.90
61145;DHT22;47026;51.208;3.288;2022-09-09T16:31:10;22.50;99.90
61145;DHT22;47026;51.208;3.288;2022-09-09T16:33:36;21.80;99.90
61145;DHT22;47026;51.208;3.288;2022-09-09T16:36:06;21.60;99.90
61145;DHT22;47026;51.208;3.288;2022-09-09T16:38:32;21.40;99.90
61145;DHT22;47026;51.208;3.288;2022-09-09T16:40:59;21.20;99.90
61145;DHT22;47026;51.208;3.288;2022-09-09T16:43:24;21.00;99.90
61145;DHT22;47026;51.208;3.288;2022-09-09T16:45:50;20.80;99.90
61145;DHT22;47026;51.208;3.288;2022-09-09T16:48:15;20.80;99.90
61145;DHT22;47026;51.208;3.288;2022-09-09T16:50:41;20.70;99.90
61145;DHT22;47026;51.208;3.288;2022-09-09T16:53:07;20.60;99.90
61145;DHT22;47026;51.208;3.288;2022-09-09T16:55:38;20.40;99.90
61145;DHT22;47026;51.208;3.288;2022-09-09T16:58:04;20.50;99.90
61145;DHT22;47026;51.208;3.288;2022-09-09T17:00:29;20.40;99.90
61145;DHT22;47026;51.208;3.288;2022-09-09T17:02:54;20.30;99.90
61145;DHT22;47026;51.208;3.288;2022-09-09T17:05:20;20.30;99.90
61145;DHT22;47026;51.208;3.288;2022-09-09T17:07:46;20.40;99.90
61145;DHT22;47026;51.208;3.288;2022-09-09T17:10:11;20.50;99.90
61145;DHT22;47026;51.208;3.288;2022-09-09T17:12:37;20.40;99.90
61145;DHT22;47026;51.208;3.288;2022-09-09T17:15:02;20.30;99.90
61145;DHT22;47026;51.208;3.288;2022-09-09T17:17:28;20.20;99.90
61145;DHT22;47026;51.208;3.288;2022-09-09T17:19:54;20.00;99.90
61145;DHT22;47026;51.208;3.288;2022-09-09T17:22:19;19.80;99.90
61145;DHT22;47026;51.208;3.288;2022-09-09T17:24:45;19.80;99.90
61145;DHT22;47026;51.208;3.288;2022-09-09T17:27:11;19.70;99.90
61145;DHT22;47026;51.208;3.288;2022-09-09T17:29:38;19.80;99.90